sensor_id;sensor_type;location;lat;lon;timestamp;temperature;humidity
40756;DHT22;26461;45.630;9.418;2022-07-29T00:00:25;25.50;92.70
40756;DHT22;26461;45.630;9.418;2022-07-29T00:03:35;25.50;92.60
40756;DHT22;26461;45.630;9.418;2022-07-29T00:06:46;25.50;92.30
40756;DHT22;26461;45.630;9.418;2022-07-29T00:09:56;25.50;92.20
40756;DHT22;26461;45.630;9.418;2022-07-29T00:13:06;25.50;92.00
40756;DHT22;26461;45.630;9.418;2022-07-29T00:16:16;25.50;91.80
40756;DHT22;26461;45.630;9.418;2022-07-29T00:19:26;25.50;91.70
40756;DHT22;26461;45.630;9.418;2022-07-29T00:22:40;25.50;91.60
40756;DHT22;26461;45.630;9.418;2022-07-29T00:25:50;25.60;91.40
40756;DHT22;26461;45.630;9.418;2022-07-29T00:29:02;25.60;91.40
40756;DHT22;26461;45.630;9.418;2022-07-29T00:32:13;25.60;91.30
40756;DHT22;26461;45.630;9.418;2022-07-29T00:35:20;25.60;91.30
40756;DHT22;26461;45.630;9.418;2022-07-29T00:38:44;25.50;91.30
40756;DHT22;26461;45.630;9.418;2022-07-29T00:41:51;25.60;91.10
40756;DHT22;26461;45.630;9.418;2022-07-29T00:45:01;25.50;91.10
40756;DHT22;26461;45.630;9.418;2022-07-29T00:48:11;25.60;90.90
40756;DHT22;26461;45.630;9.418;2022-07-29T00:51:20;25.60;90.90
40756;DHT22;26461;45.630;9.418;2022-07-29T00:54:30;25.60;90.90
40756;DHT22;26461;45.630;9.418;2022-07-29T00:57:42;25.60;90.90
40756;DHT22;26461;45.630;9.418;2022-07-29T01:00:52;25.60;90.90
40756;DHT22;26461;45.630;9.418;2022-07-29T01:04:03;25.60;90.80
40756;DHT22;26461;45.630;9.418;2022-07-29T01:07:13;25.60;90.80
40756;DHT22;26461;45.630;9.418;2022-07-29T01:10:23;25.60;90.80
40756;DHT22;26461;45.630;9.418;2022-07-29T01:13:34;25.60;90.80
40756;DHT22;26461;45.630;9.418;2022-07-29T01:17:12;25.60;90.80
40756;DHT22;26461;45.630;9.418;2022-07-29T01:24:24;25.60;91.30
40756;DHT22;26461;45.630;9.418;2022-07-29T01:31:09;25.50;91.10
40756;DHT22;26461;45.630;9.418;2022-07-29T01:34:53;25.50;91.20
40756;DHT22;26461;45.630;9.418;2022-07-29T01:38:18;25.40;91.60
40756;DHT22;26461;45.630;9.418;2022-07-29T01:41:31;25.30;91.80
40756;DHT22;26461;45.630;9.418;2022-07-29T01:44:50;25.20;92.20
40756;DHT22;26461;45.630;9.418;2022-07-29T01:48:10;25.20;92.20
40756;DHT22;26461;45.630;9.418;2022-07-29T01:51:25;25.10;92.10
40756;DHT22;26461;45.630;9.418;2022-07-29T01:54:44;25.10;92.00
40756;DHT22;26461;45.630;9.418;2022-07-29T01:57:56;25.10;92.10
40756;DHT22;26461;45.630;9.418;2022-07-29T02:01:09;25.10;92.10
40756;DHT22;26461;45.630;9.418;2022-07-29T02:04:20;25.10;91.90
40756;DHT22;26461;45.630;9.418;2022-07-29T02:07:31;25.10;91.70
40756;DHT22;26461;45.630;9.418;2022-07-29T02:10:38;25.10;91.40
40756;DHT22;26461;45.630;9.418;2022-07-29T02:13:49;25.20;91.30
40756;DHT22;26461;45.630;9.418;2022-07-29T02:17:01;25.20;91.00
40756;DHT22;26461;45.630;9.418;2022-07-29T02:20:12;25.30;91.00
40756;DHT22;26461;45.630;9.418;2022-07-29T02:23:23;25.30;91.00
40756;DHT22;26461;45.630;9.418;2022-07-29T02:26:30;25.30;90.90
40756;DHT22;26461;45.630;9.418;2022-07-29T02:29:43;25.30;90.80
40756;DHT22;26461;45.630;9.418;2022-07-29T02:32:55;25.30;91.20
40756;DHT22;26461;45.630;9.418;2022-07-29T02:36:05;25.20;91.60
40756;DHT22;26461;45.630;9.418;2022-07-29T02:39:17;25.10;92.00
40756;DHT22;26461;45.630;9.418;2022-07-29T02:42:28;24.90;92.40
40756;DHT22;26461;45.630;9.418;2022-07-29T02:45:38;24.80;92.70
40756;DHT22;26461;45.630;9.418;2022-07-29T02:48:54;24.70;93.00
40756;DHT22;26461;45.630;9.418;2022-07-29T02:52:11;24.70;93.10
40756;DHT22;26461;45.630;9.418;2022-07-29T02:55:30;24.60;93.20
40756;DHT22;26461;45.630;9.418;2022-07-29T02:58:45;24.60;93.30
40756;DHT22;26461;45.630;9.418;2022-07-29T03:01:57;24.70;93.30
40756;DHT22;26461;45.630;9.418;2022-07-29T03:05:12;24.70;93.20
40756;DHT22;26461;45.630;9.418;2022-07-29T03:08:26;24.80;93.20
40756;DHT22;26461;45.630;9.418;2022-07-29T03:11:38;24.70;93.20
40756;DHT22;26461;45.630;9.418;2022-07-29T03:14:43;24.70;93.30
40756;DHT22;26461;45.630;9.418;2022-07-29T03:17:54;24.60;93.30
40756;DHT22;26461;45.630;9.418;2022-07-29T03:21:00;24.40;93.40
40756;DHT22;26461;45.630;9.418;2022-07-29T03:24:10;24.40;93.70
40756;DHT22;26461;45.630;9.418;2022-07-29T03:27:15;24.40;94.00
40756;DHT22;26461;45.630;9.418;2022-07-29T03:30:25;24.30;94.00
40756;DHT22;26461;45.630;9.418;2022-07-29T03:33:34;24.30;94.00
40756;DHT22;26461;45.630;9.418;2022-07-29T03:36:45;24.30;94.10
40756;DHT22;26461;45.630;9.418;2022-07-29T03:39:57;24.30;93.90
40756;DHT22;26461;45.630;9.418;2022-07-29T03:43:08;24.40;93.70
40756;DHT22;26461;45.630;9.418;2022-07-29T03:46:22;24.40;93.20
40756;DHT22;26461;45.630;9.418;2022-07-29T03:49:36;24.50;93.00
40756;DHT22;26461;45.630;9.418;2022-07-29T03:52:47;24.50;92.80
40756;DHT22;26461;45.630;9.418;2022-07-29T03:55:59;24.50;92.70
40756;DHT22;26461;45.630;9.418;2022-07-29T03:59:13;24.40;92.60
40756;DHT22;26461;45.630;9.418;2022-07-29T04:02:19;24.40;92.60
40756;DHT22;26461;45.630;9.418;2022-07-29T04:05:29;24.50;92.50
40756;DHT22;26461;45.630;9.418;2022-07-29T04:08:39;24.50;92.60
40756;DHT22;26461;45.630;9.418;2022-07-29T04:11:49;24.60;92.50
40756;DHT22;26461;45.630;9.418;2022-07-29T04:14:59;24.60;92.30
40756;DHT22;26461;45.630;9.418;2022-07-29T04:18:09;24.60;92.40
40756;DHT22;26461;45.630;9.418;2022-07-29T04:21:19;24.70;92.50
40756;DHT22;26461;45.630;9.418;2022-07-29T04:24:29;24.70;92.30
40756;DHT22;26461;45.630;9.418;2022-07-29T04:27:39;24.70;92.90
40756;DHT22;26461;45.630;9.418;2022-07-29T04:31:10;24.80;93.40
40756;DHT22;26461;45.630;9.418;2022-07-29T04:34:20;24.80;93.40
40756;DHT22;26461;45.630;9.418;2022-07-29T04:37:30;24.70;93.10
40756;DHT22;26461;45.630;9.418;2022-07-29T04:40:40;24.70;92.90
40756;DHT22;26461;45.630;9.418;2022-07-29T04:43:45;24.70;92.50
40756;DHT22;26461;45.630;9.418;2022-07-29T04:46:56;24.70;92.40
40756;DHT22;26461;45.630;9.418;2022-07-29T04:50:07;24.80;92.40
40756;DHT22;26461;45.630;9.418;2022-07-29T04:53:18;24.80;92.20
40756;DHT22;26461;45.630;9.418;2022-07-29T04:56:28;24.90;92.20
40756;DHT22;26461;45.630;9.418;2022-07-29T04:59:38;24.90;92.10
40756;DHT22;26461;45.630;9.418;2022-07-29T05:02:49;25.00;91.90
40756;DHT22;26461;45.630;9.418;2022-07-29T05:05:59;25.20;91.70
40756;DHT22;26461;45.630;9.418;2022-07-29T05:09:09;25.10;91.60
40756;DHT22;26461;45.630;9.418;2022-07-29T05:12:19;25.10;91.70
40756;DHT22;26461;45.630;9.418;2022-07-29T05:15:29;25.10;91.80
40756;DHT22;26461;45.630;9.418;2022-07-29T05:18:39;25.20;91.90
40756;DHT22;26461;45.630;9.418;2022-07-29T05:21:49;25.10;92.00
40756;DHT22;26461;45.630;9.418;2022-07-29T05:24:54;25.10;92.00
40756;DHT22;26461;45.630;9.418;2022-07-29T05:28:04;25.00;91.90
40756;DHT22;26461;45.630;9.418;2022-07-29T05:31:14;25.00;92.00
40756;DHT22;26461;45.630;9.418;2022-07-29T05:34:24;25.00;92.00
40756;DHT22;26461;45.630;9.418;2022-07-29T05:37:35;25.00;91.80
40756;DHT22;26461;45.630;9.418;2022-07-29T05:40:45;25.10;91.90
40756;DHT22;26461;45.630;9.418;2022-07-29T05:43:55;25.10;91.80
40756;DHT22;26461;45.630;9.418;2022-07-29T05:47:06;25.20;91.80
40756;DHT22;26461;45.630;9.418;2022-07-29T05:50:16;25.20;91.70
40756;DHT22;26461;45.630;9.418;2022-07-29T05:53:26;25.20;91.70
40756;DHT22;26461;45.630;9.418;2022-07-29T05:56:30;25.30;91.70
40756;DHT22;26461;45.630;9.418;2022-07-29T05:59:40;25.30;91.70
40756;DHT22;26461;45.630;9.418;2022-07-29T06:02:50;25.30;91.70
40756;DHT22;26461;45.630;9.418;2022-07-29T06:06:01;25.30;91.70
40756;DHT22;26461;45.630;9.418;2022-07-29T06:09:11;25.40;91.50
40756;DHT22;26461;45.630;9.418;2022-07-29T06:12:20;25.40;91.30
40756;DHT22;26461;45.630;9.418;2022-07-29T06:15:25;25.50;91.30
40756;DHT22;26461;45.630;9.418;2022-07-29T06:18:35;25.50;91.30
40756;DHT22;26461;45.630;9.418;2022-07-29T06:21:46;25.50;91.20
40756;DHT22;26461;45.630;9.418;2022-07-29T06:24:56;25.50;91.00
40756;DHT22;26461;45.630;9.418;2022-07-29T06:28:06;25.50;91.10
40756;DHT22;26461;45.630;9.418;2022-07-29T06:31:16;25.60;90.90
40756;DHT22;26461;45.630;9.418;2022-07-29T06:34:26;25.60;90.60
40756;DHT22;26461;45.630;9.418;2022-07-29T06:37:36;25.60;90.40
40756;DHT22;26461;45.630;9.418;2022-07-29T06:40:46;25.70;90.30
40756;DHT22;26461;45.630;9.418;2022-07-29T06:44:16;25.70;90.40
40756;DHT22;26461;45.630;9.418;2022-07-29T06:47:27;25.80;90.40
40756;DHT22;26461;45.630;9.418;2022-07-29T06:50:38;25.90;90.30
40756;DHT22;26461;45.630;9.418;2022-07-29T06:53:51;25.90;90.10
40756;DHT22;26461;45.630;9.418;2022-07-29T06:57:00;26.00;90.00
40756;DHT22;26461;45.630;9.418;2022-07-29T07:00:11;26.10;89.80
40756;DHT22;26461;45.630;9.418;2022-07-29T07:03:17;26.10;89.20
40756;DHT22;26461;45.630;9.418;2022-07-29T07:06:27;26.10;88.70
40756;DHT22;26461;45.630;9.418;2022-07-29T07:09:37;26.20;88.00
40756;DHT22;26461;45.630;9.418;2022-07-29T07:12:47;26.20;88.00
40756;DHT22;26461;45.630;9.418;2022-07-29T07:15:57;26.20;88.00
40756;DHT22;26461;45.630;9.418;2022-07-29T07:19:07;26.20;88.00
40756;DHT22;26461;45.630;9.418;2022-07-29T07:22:17;26.30;87.50
40756;DHT22;26461;45.630;9.418;2022-07-29T07:25:27;26.30;87.10
40756;DHT22;26461;45.630;9.418;2022-07-29T07:28:38;26.30;86.80
40756;DHT22;26461;45.630;9.418;2022-07-29T07:31:48;26.40;87.00
40756;DHT22;26461;45.630;9.418;2022-07-29T07:34:57;26.40;86.50
40756;DHT22;26461;45.630;9.418;2022-07-29T07:38:08;26.40;86.30
40756;DHT22;26461;45.630;9.418;2022-07-29T07:41:19;26.50;86.40
40756;DHT22;26461;45.630;9.418;2022-07-29T07:44:29;26.50;86.00
40756;DHT22;26461;45.630;9.418;2022-07-29T07:47:39;26.60;85.60
40756;DHT22;26461;45.630;9.418;2022-07-29T07:50:49;26.60;85.50
40756;DHT22;26461;45.630;9.418;2022-07-29T07:54:00;26.60;86.10
40756;DHT22;26461;45.630;9.418;2022-07-29T07:57:13;26.70;85.00
40756;DHT22;26461;45.630;9.418;2022-07-29T08:00:24;26.70;84.00
40756;DHT22;26461;45.630;9.418;2022-07-29T08:03:34;26.70;84.30
40756;DHT22;26461;45.630;9.418;2022-07-29T08:06:39;26.70;84.10
40756;DHT22;26461;45.630;9.418;2022-07-29T08:09:49;26.80;83.90
40756;DHT22;26461;45.630;9.418;2022-07-29T08:13:03;26.80;83.40
40756;DHT22;26461;45.630;9.418;2022-07-29T08:16:13;26.90;83.30
40756;DHT22;26461;45.630;9.418;2022-07-29T08:19:24;26.90;82.00
40756;DHT22;26461;45.630;9.418;2022-07-29T08:22:34;27.00;82.20
40756;DHT22;26461;45.630;9.418;2022-07-29T08:25:44;27.00;81.90
40756;DHT22;26461;45.630;9.418;2022-07-29T08:28:54;27.00;81.50
40756;DHT22;26461;45.630;9.418;2022-07-29T08:32:04;27.10;81.30
40756;DHT22;26461;45.630;9.418;2022-07-29T08:35:15;27.10;79.60
40756;DHT22;26461;45.630;9.418;2022-07-29T08:38:25;27.10;79.30
40756;DHT22;26461;45.630;9.418;2022-07-29T08:41:36;27.00;78.90
40756;DHT22;26461;45.630;9.418;2022-07-29T08:44:41;27.00;79.40
40756;DHT22;26461;45.630;9.418;2022-07-29T08:47:51;27.10;77.90
40756;DHT22;26461;45.630;9.418;2022-07-29T08:51:02;27.10;78.40
40756;DHT22;26461;45.630;9.418;2022-07-29T08:54:17;27.10;77.50
40756;DHT22;26461;45.630;9.418;2022-07-29T08:57:27;27.10;78.60
40756;DHT22;26461;45.630;9.418;2022-07-29T09:00:49;27.10;78.20
40756;DHT22;26461;45.630;9.418;2022-07-29T09:04:01;27.10;79.40
40756;DHT22;26461;45.630;9.418;2022-07-29T09:07:17;27.00;79.60
40756;DHT22;26461;45.630;9.418;2022-07-29T09:10:27;27.00;78.20
40756;DHT22;26461;45.630;9.418;2022-07-29T09:13:37;27.00;82.00
40756;DHT22;26461;45.630;9.418;2022-07-29T09:16:54;27.00;85.80
40756;DHT22;26461;45.630;9.418;2022-07-29T09:20:12;26.90;90.10
40756;DHT22;26461;45.630;9.418;2022-07-29T09:23:23;26.80;89.30
40756;DHT22;26461;45.630;9.418;2022-07-29T09:26:36;26.70;84.30
40756;DHT22;26461;45.630;9.418;2022-07-29T09:29:46;26.70;88.10
40756;DHT22;26461;45.630;9.418;2022-07-29T09:32:58;26.70;90.20
40756;DHT22;26461;45.630;9.418;2022-07-29T09:36:10;26.70;91.20
40756;DHT22;26461;45.630;9.418;2022-07-29T09:39:30;26.60;87.60
40756;DHT22;26461;45.630;9.418;2022-07-29T09:42:41;26.60;86.80
40756;DHT22;26461;45.630;9.418;2022-07-29T09:45:50;26.70;85.50
40756;DHT22;26461;45.630;9.418;2022-07-29T09:49:12;26.80;86.10
40756;DHT22;26461;45.630;9.418;2022-07-29T09:52:22;26.90;86.10
40756;DHT22;26461;45.630;9.418;2022-07-29T09:55:49;27.00;87.20
40756;DHT22;26461;45.630;9.418;2022-07-29T09:59:07;27.10;90.20
40756;DHT22;26461;45.630;9.418;2022-07-29T10:02:17;27.10;89.80
40756;DHT22;26461;45.630;9.418;2022-07-29T10:05:27;27.20;89.50
40756;DHT22;26461;45.630;9.418;2022-07-29T10:08:38;27.20;88.70
40756;DHT22;26461;45.630;9.418;2022-07-29T10:12:06;27.30;84.70
40756;DHT22;26461;45.630;9.418;2022-07-29T10:15:17;27.30;86.70
40756;DHT22;26461;45.630;9.418;2022-07-29T10:18:27;27.40;87.20
40756;DHT22;26461;45.630;9.418;2022-07-29T10:21:37;27.40;89.60
40756;DHT22;26461;45.630;9.418;2022-07-29T10:24:49;27.50;88.80
40756;DHT22;26461;45.630;9.418;2022-07-29T10:27:59;27.50;86.80
40756;DHT22;26461;45.630;9.418;2022-07-29T10:31:22;27.60;86.20
40756;DHT22;26461;45.630;9.418;2022-07-29T10:44:58;27.90;84.10
40756;DHT22;26461;45.630;9.418;2022-07-29T10:48:08;28.00;84.40
40756;DHT22;26461;45.630;9.418;2022-07-29T10:51:18;28.10;84.50
40756;DHT22;26461;45.630;9.418;2022-07-29T10:58:14;28.20;82.80
40756;DHT22;26461;45.630;9.418;2022-07-29T11:01:29;28.20;82.50
40756;DHT22;26461;45.630;9.418;2022-07-29T11:05:04;28.30;81.40
40756;DHT22;26461;45.630;9.418;2022-07-29T11:08:17;28.30;82.00
40756;DHT22;26461;45.630;9.418;2022-07-29T11:14:56;28.40;82.70
40756;DHT22;26461;45.630;9.418;2022-07-29T11:18:08;28.50;82.80
40756;DHT22;26461;45.630;9.418;2022-07-29T11:21:40;28.50;82.80
40756;DHT22;26461;45.630;9.418;2022-07-29T11:25:17;28.60;82.20
40756;DHT22;26461;45.630;9.418;2022-07-29T11:28:22;28.60;82.60
40756;DHT22;26461;45.630;9.418;2022-07-29T11:31:38;28.60;82.70
40756;DHT22;26461;45.630;9.418;2022-07-29T11:35:13;28.70;82.30
40756;DHT22;26461;45.630;9.418;2022-07-29T11:38:26;28.70;82.30
40756;DHT22;26461;45.630;9.418;2022-07-29T11:41:36;28.70;82.90
40756;DHT22;26461;45.630;9.418;2022-07-29T11:48:20;28.80;82.50
40756;DHT22;26461;45.630;9.418;2022-07-29T11:51:30;28.80;83.10
40756;DHT22;26461;45.630;9.418;2022-07-29T11:54:36;28.90;82.60
40756;DHT22;26461;45.630;9.418;2022-07-29T11:57:54;28.90;82.30
40756;DHT22;26461;45.630;9.418;2022-07-29T12:01:04;28.90;82.30
40756;DHT22;26461;45.630;9.418;2022-07-29T12:04:16;29.00;81.30
40756;DHT22;26461;45.630;9.418;2022-07-29T12:07:33;29.10;81.00
40756;DHT22;26461;45.630;9.418;2022-07-29T12:10:43;29.10;81.10
40756;DHT22;26461;45.630;9.418;2022-07-29T12:13:53;29.20;81.20
40756;DHT22;26461;45.630;9.418;2022-07-29T12:17:05;29.30;81.10
40756;DHT22;26461;45.630;9.418;2022-07-29T12:20:25;29.30;80.90
40756;DHT22;26461;45.630;9.418;2022-07-29T12:23:37;29.40;81.10
40756;DHT22;26461;45.630;9.418;2022-07-29T12:26:52;29.40;81.30
40756;DHT22;26461;45.630;9.418;2022-07-29T12:30:05;29.40;81.80
40756;DHT22;26461;45.630;9.418;2022-07-29T12:33:18;29.30;82.30
40756;DHT22;26461;45.630;9.418;2022-07-29T12:36:29;29.30;82.40
40756;DHT22;26461;45.630;9.418;2022-07-29T12:39:40;29.30;82.80
40756;DHT22;26461;45.630;9.418;2022-07-29T12:43:14;29.30;83.10
40756;DHT22;26461;45.630;9.418;2022-07-29T12:46:24;29.20;83.00
40756;DHT22;26461;45.630;9.418;2022-07-29T12:49:36;29.20;83.30
40756;DHT22;26461;45.630;9.418;2022-07-29T12:52:46;29.20;83.30
40756;DHT22;26461;45.630;9.418;2022-07-29T12:55:57;29.20;83.00
40756;DHT22;26461;45.630;9.418;2022-07-29T12:59:22;29.30;82.70
40756;DHT22;26461;45.630;9.418;2022-07-29T13:02:32;29.30;81.60
40756;DHT22;26461;45.630;9.418;2022-07-29T13:05:45;29.20;82.10
40756;DHT22;26461;45.630;9.418;2022-07-29T13:09:00;29.20;83.50
40756;DHT22;26461;45.630;9.418;2022-07-29T13:12:12;29.20;84.70
40756;DHT22;26461;45.630;9.418;2022-07-29T13:15:23;29.10;85.50
40756;DHT22;26461;45.630;9.418;2022-07-29T13:18:35;29.40;83.50
40756;DHT22;26461;45.630;9.418;2022-07-29T13:21:47;29.50;82.60
40756;DHT22;26461;45.630;9.418;2022-07-29T13:24:59;29.60;82.80
40756;DHT22;26461;45.630;9.418;2022-07-29T13:28:11;29.60;82.60
40756;DHT22;26461;45.630;9.418;2022-07-29T13:31:21;29.60;81.10
40756;DHT22;26461;45.630;9.418;2022-07-29T13:34:32;29.70;80.10
40756;DHT22;26461;45.630;9.418;2022-07-29T13:37:37;29.60;80.10
40756;DHT22;26461;45.630;9.418;2022-07-29T13:40:49;29.70;80.00
40756;DHT22;26461;45.630;9.418;2022-07-29T13:43:57;29.70;79.70
40756;DHT22;26461;45.630;9.418;2022-07-29T13:47:03;29.80;79.30
40756;DHT22;26461;45.630;9.418;2022-07-29T13:50:09;29.90;78.50
40756;DHT22;26461;45.630;9.418;2022-07-29T13:53:17;30.00;78.40
40756;DHT22;26461;45.630;9.418;2022-07-29T13:56:26;30.10;77.90
40756;DHT22;26461;45.630;9.418;2022-07-29T13:59:35;30.20;76.80
40756;DHT22;26461;45.630;9.418;2022-07-29T14:02:41;30.20;76.60
40756;DHT22;26461;45.630;9.418;2022-07-29T14:05:47;30.10;77.20
40756;DHT22;26461;45.630;9.418;2022-07-29T14:09:01;30.20;76.10
40756;DHT22;26461;45.630;9.418;2022-07-29T14:12:12;30.10;75.50
40756;DHT22;26461;45.630;9.418;2022-07-29T14:15:18;30.10;75.50
40756;DHT22;26461;45.630;9.418;2022-07-29T14:18:24;30.20;75.20
40756;DHT22;26461;45.630;9.418;2022-07-29T14:21:30;30.20;75.20
40756;DHT22;26461;45.630;9.418;2022-07-29T14:24:39;30.10;74.10
40756;DHT22;26461;45.630;9.418;2022-07-29T14:27:43;30.10;74.70
40756;DHT22;26461;45.630;9.418;2022-07-29T14:30:54;30.10;74.60
40756;DHT22;26461;45.630;9.418;2022-07-29T14:34:04;30.10;74.10
40756;DHT22;26461;45.630;9.418;2022-07-29T14:37:14;30.10;74.20
40756;DHT22;26461;45.630;9.418;2022-07-29T14:40:24;30.10;74.20
40756;DHT22;26461;45.630;9.418;2022-07-29T14:43:35;30.10;74.00
40756;DHT22;26461;45.630;9.418;2022-07-29T14:46:45;30.10;73.80
40756;DHT22;26461;45.630;9.418;2022-07-29T14:49:55;30.10;73.60
40756;DHT22;26461;45.630;9.418;2022-07-29T14:53:05;30.10;73.20
40756;DHT22;26461;45.630;9.418;2022-07-29T14:56:10;30.10;73.20
40756;DHT22;26461;45.630;9.418;2022-07-29T14:59:20;30.10;73.60
40756;DHT22;26461;45.630;9.418;2022-07-29T15:02:32;30.00;73.80
40756;DHT22;26461;45.630;9.418;2022-07-29T15:05:42;30.10;73.70
40756;DHT22;26461;45.630;9.418;2022-07-29T15:08:52;30.00;74.10
40756;DHT22;26461;45.630;9.418;2022-07-29T15:12:02;30.00;74.10
40756;DHT22;26461;45.630;9.418;2022-07-29T15:15:08;30.00;74.30
40756;DHT22;26461;45.630;9.418;2022-07-29T15:18:18;29.90;74.50
40756;DHT22;26461;45.630;9.418;2022-07-29T15:21:28;30.00;79.30
40756;DHT22;26461;45.630;9.418;2022-07-29T15:24:39;29.90;80.60
40756;DHT22;26461;45.630;9.418;2022-07-29T15:27:49;29.70;82.60
40756;DHT22;26461;45.630;9.418;2022-07-29T15:30:59;29.50;83.70
40756;DHT22;26461;45.630;9.418;2022-07-29T15:34:09;29.20;82.70
40756;DHT22;26461;45.630;9.418;2022-07-29T15:37:19;28.90;79.30
40756;DHT22;26461;45.630;9.418;2022-07-29T15:40:29;28.60;78.10
40756;DHT22;26461;45.630;9.418;2022-07-29T15:43:43;28.10;74.80
40756;DHT22;26461;45.630;9.418;2022-07-29T15:46:53;27.60;80.70
40756;DHT22;26461;45.630;9.418;2022-07-29T15:50:12;27.20;85.50
40756;DHT22;26461;45.630;9.418;2022-07-29T15:53:25;26.90;91.20
40756;DHT22;26461;45.630;9.418;2022-07-29T15:56:36;26.60;91.30
40756;DHT22;26461;45.630;9.418;2022-07-29T15:59:50;26.50;90.80
40756;DHT22;26461;45.630;9.418;2022-07-29T16:03:01;26.20;90.70
40756;DHT22;26461;45.630;9.418;2022-07-29T16:06:06;25.90;92.90
40756;DHT22;26461;45.630;9.418;2022-07-29T16:09:17;25.60;94.20
40756;DHT22;26461;45.630;9.418;2022-07-29T16:12:28;25.40;96.30
40756;DHT22;26461;45.630;9.418;2022-07-29T16:15:38;25.30;99.80
40756;DHT22;26461;45.630;9.418;2022-07-29T16:18:48;24.90;99.30
40756;DHT22;26461;45.630;9.418;2022-07-29T16:21:59;24.70;99.90
40756;DHT22;26461;45.630;9.418;2022-07-29T16:25:12;24.60;99.10
40756;DHT22;26461;45.630;9.418;2022-07-29T16:28:17;24.40;98.50
40756;DHT22;26461;45.630;9.418;2022-07-29T16:31:29;24.20;97.20
40756;DHT22;26461;45.630;9.418;2022-07-29T16:34:41;24.20;97.10
40756;DHT22;26461;45.630;9.418;2022-07-29T16:37:51;24.10;97.90
40756;DHT22;26461;45.630;9.418;2022-07-29T16:41:05;24.10;98.70
40756;DHT22;26461;45.630;9.418;2022-07-29T16:44:15;24.30;98.70
40756;DHT22;26461;45.630;9.418;2022-07-29T16:47:26;24.50;99.10
40756;DHT22;26461;45.630;9.418;2022-07-29T16:50:37;24.60;99.20
40756;DHT22;26461;45.630;9.418;2022-07-29T16:53:47;24.60;99.20
40756;DHT22;26461;45.630;9.418;2022-07-29T16:56:57;24.60;97.90
40756;DHT22;26461;45.630;9.418;2022-07-29T17:00:09;24.40;98.30
40756;DHT22;26461;45.630;9.418;2022-07-29T17:03:19;24.10;99.30
40756;DHT22;26461;45.630;9.418;2022-07-29T17:06:29;24.00;99.80
40756;DHT22;26461;45.630;9.418;2022-07-29T17:09:40;23.70;99.90
40756;DHT22;26461;45.630;9.418;2022-07-29T17:12:51;23.60;99.90
40756;DHT22;26461;45.630;9.418;2022-07-29T17:16:00;23.40;99.90
40756;DHT22;26461;45.630;9.418;2022-07-29T17:19:11;23.30;99.90
40756;DHT22;26461;45.630;9.418;2022-07-29T17:22:21;23.20;99.90
40756;DHT22;26461;45.630;9.418;2022-07-29T17:25:31;23.10;99.90
40756;DHT22;26461;45.630;9.418;2022-07-29T17:28:41;23.20;99.90
40756;DHT22;26461;45.630;9.418;2022-07-29T17:31:52;23.90;99.90
40756;DHT22;26461;45.630;9.418;2022-07-29T17:35:02;23.40;99.90
40756;DHT22;26461;45.630;9.418;2022-07-29T17:38:12;23.60;99.90
40756;DHT22;26461;45.630;9.418;2022-07-29T17:41:41;23.70;99.90
40756;DHT22;26461;45.630;9.418;2022-07-29T17:44:53;23.80;99.90
40756;DHT22;26461;45.630;9.418;2022-07-29T17:48:03;23.80;99.90
40756;DHT22;26461;45.630;9.418;2022-07-29T17:51:13;23.80;99.90
40756;DHT22;26461;45.630;9.418;2022-07-29T17:54:24;23.80;99.90
40756;DHT22;26461;45.630;9.418;2022-07-29T17:57:33;23.80;99.90
40756;DHT22;26461;45.630;9.418;2022-07-29T18:00:43;23.80;99.90
40756;DHT22;26461;45.630;9.418;2022-07-29T18:03:53;24.10;99.90
40756;DHT22;26461;45.630;9.418;2022-07-29T18:07:03;23.70;99.90
40756;DHT22;26461;45.630;9.418;2022-07-29T18:10:13;23.60;99.90
40756;DHT22;26461;45.630;9.418;2022-07-29T18:13:24;23.60;99.90
40756;DHT22;26461;45.630;9.418;2022-07-29T18:16:34;23.70;99.90
40756;DHT22;26461;45.630;9.418;2022-07-29T18:19:45;23.70;99.90
40756;DHT22;26461;45.630;9.418;2022-07-29T18:22:55;23.70;99.90
40756;DHT22;26461;45.630;9.418;2022-07-29T18:26:00;23.70;99.90
40756;DHT22;26461;45.630;9.418;2022-07-29T18:29:11;23.70;99.90
40756;DHT22;26461;45.630;9.418;2022-07-29T18:32:21;24.00;99.90
40756;DHT22;26461;45.630;9.418;2022-07-29T18:35:31;23.70;99.90
40756;DHT22;26461;45.630;9.418;2022-07-29T18:38:41;23.80;99.90
40756;DHT22;26461;45.630;9.418;2022-07-29T18:41:52;23.90;99.90
40756;DHT22;26461;45.630;9.418;2022-07-29T18:45:00;24.00;99.90
40756;DHT22;26461;45.630;9.418;2022-07-29T18:48:10;24.10;99.90
40756;DHT22;26461;45.630;9.418;2022-07-29T18:51:20;24.10;99.90
40756;DHT22;26461;45.630;9.418;2022-07-29T18:54:30;24.00;99.90
40756;DHT22;26461;45.630;9.418;2022-07-29T18:57:39;23.90;99.90
40756;DHT22;26461;45.630;9.418;2022-07-29T19:00:49;23.80;99.90
40756;DHT22;26461;45.630;9.418;2022-07-29T19:03:54;23.80;99.90
40756;DHT22;26461;45.630;9.418;2022-07-29T19:07:04;23.80;99.90
40756;DHT22;26461;45.630;9.418;2022-07-29T19:10:14;23.70;99.90
40756;DHT22;26461;45.630;9.418;2022-07-29T19:13:24;23.60;99.90
40756;DHT22;26461;45.630;9.418;2022-07-29T19:16:34;23.50;99.90
40756;DHT22;26461;45.630;9.418;2022-07-29T19:19:45;23.50;99.90
40756;DHT22;26461;45.630;9.418;2022-07-29T19:22:55;23.40;99.90
40756;DHT22;26461;45.630;9.418;2022-07-29T19:26:06;23.30;99.90
40756;DHT22;26461;45.630;9.418;2022-07-29T19:29:13;23.80;99.90
40756;DHT22;26461;45.630;9.418;2022-07-29T19:32:23;23.30;99.90
40756;DHT22;26461;45.630;9.418;2022-07-29T19:35:34;23.30;99.90
40756;DHT22;26461;45.630;9.418;2022-07-29T19:38:45;23.30;99.90
40756;DHT22;26461;45.630;9.418;2022-07-29T19:41:50;23.30;99.90
40756;DHT22;26461;45.630;9.418;2022-07-29T19:45:00;23.30;99.90
40756;DHT22;26461;45.630;9.418;2022-07-29T19:48:10;23.30;99.90
40756;DHT22;26461;45.630;9.418;2022-07-29T19:51:22;23.30;99.90
40756;DHT22;26461;45.630;9.418;2022-07-29T19:54:32;23.30;99.90
40756;DHT22;26461;45.630;9.418;2022-07-29T19:57:42;23.20;99.90
40756;DHT22;26461;45.630;9.418;2022-07-29T20:00:53;23.30;99.90
40756;DHT22;26461;45.630;9.418;2022-07-29T20:04:03;23.30;99.90
40756;DHT22;26461;45.630;9.418;2022-07-29T20:07:14;23.40;99.90
40756;DHT22;26461;45.630;9.418;2022-07-29T20:10:25;23.30;99.90
40756;DHT22;26461;45.630;9.418;2022-07-29T20:13:35;23.30;99.90
40756;DHT22;26461;45.630;9.418;2022-07-29T20:16:45;23.20;99.90
40756;DHT22;26461;45.630;9.418;2022-07-29T20:19:56;23.20;99.90
40756;DHT22;26461;45.630;9.418;2022-07-29T20:23:08;23.10;99.90
40756;DHT22;26461;45.630;9.418;2022-07-29T20:26:20;23.10;99.90
40756;DHT22;26461;45.630;9.418;2022-07-29T20:29:30;23.00;99.90
40756;DHT22;26461;45.630;9.418;2022-07-29T20:32:40;23.00;99.90
40756;DHT22;26461;45.630;9.418;2022-07-29T20:35:50;23.00;99.90